Time;durP1;ratioP1;P1;durP2;ratioP2;P2;SDS_P1;SDS_P2;PMS_P1;PMS_P2;Temp;Humidity;BMP_temperature;BMP_pressure;BME280_temperature;BME280_humidity;BME280_pressure;Samples;Min_cycle;Max_cycle;Signal;HPM_P1;HPM_P2
2023/04/18 00:01:05;;;;;;;19.63;15.63;;;6.50;99.90;;;;;;5009949;28;20202;-86
2023/04/18 00:03:32;;;;;;;21.75;14.88;;;6.60;99.90;;;;;;5009508;28;20206;-87
2023/04/18 00:05:58;;;;;;;19.30;14.40;;;6.50;99.90;;;;;;5009158;28;20229;-85
2023/04/18 00:08:27;;;;;;;19.63;14.35;;;6.50;1.00;;;;;;5004843;28;20237;-86
2023/04/18 00:10:54;;;;;;;19.05;13.88;;;6.90;99.90;;;;;;5003423;28;20212;-85
2023/04/18 00:13:22;;;;;;;20.88;15.80;;;6.40;1.00;;;;;;5001584;28;20206;-87
2023/04/18 00:15:49;;;;;;;24.63;15.93;;;6.30;1.00;;;;;;5002406;28;20257;-86
2023/04/18 00:18:15;;;;;;;22.75;15.23;;;6.40;1.00;;;;;;5002790;28;20276;-85
2023/04/18 00:20:42;;;;;;;25.80;17.27;;;6.30;99.90;;;;;;5020220;28;20198;-85
2023/04/18 00:23:12;;;;;;;23.92;16.20;;;6.60;1.00;;;;;;5020537;28;20181;-86
2023/04/18 00:25:39;;;;;;;25.58;16.50;;;6.40;99.90;;;;;;5020173;28;20210;-85
2023/04/18 00:28:06;;;;;;;17.98;14.55;;;6.30;99.90;;;;;;5007009;28;20296;-86
2023/04/18 00:30:34;;;;;;;20.88;15.15;;;5.90;1.00;;;;;;5001601;28;20209;-85
2023/04/18 00:33:03;;;;;;;18.73;14.75;;;6.30;99.90;;;;;;5006965;28;20273;-87
2023/04/18 00:35:30;;;;;;;22.13;13.75;;;6.20;99.90;;;;;;5004360;28;20233;-86
2023/04/18 00:37:57;;;;;;;23.13;15.20;;;6.30;99.90;;;;;;5005193;28;20221;-86
2023/04/18 00:40:24;;;;;;;22.77;15.68;;;6.30;99.90;;;;;;5005790;28;20297;-86
2023/04/18 00:42:52;;;;;;;27.10;15.88;;;6.20;99.90;;;;;;5005626;28;20217;-86
2023/04/18 00:45:19;;;;;;;20.75;14.55;;;6.20;99.90;;;;;;5005093;28;20292;-86
2023/04/18 00:47:47;;;;;;;22.48;15.35;;;6.20;1.00;;;;;;5006501;28;20273;-86
2023/04/18 00:50:15;;;;;;;21.20;14.25;;;6.10;1.00;;;;;;5019463;28;20216;-86
2023/04/18 00:52:43;;;;;;;21.40;14.93;;;6.20;99.90;;;;;;5004704;28;20273;-84
2023/04/18 00:55:10;;;;;;;21.35;14.45;;;6.20;99.90;;;;;;5006048;28;20245;-84
2023/04/18 00:57:37;;;;;;;19.85;14.60;;;6.20;99.90;;;;;;5002034;28;20237;-84
2023/04/18 01:00:08;;;;;;;21.45;15.05;;;6.20;99.90;;;;;;4998615;28;20208;-85
2023/04/18 01:02:35;;;;;;;24.85;15.43;;;6.20;99.90;;;;;;4996748;28;20201;-85
2023/04/18 01:05:04;;;;;;;22.15;16.45;;;6.40;1.00;;;;;;4997135;28;20221;-85
2023/04/18 01:07:32;;;;;;;16.50;14.70;;;6.10;99.90;;;;;;4997993;28;20256;-85
2023/04/18 01:09:59;;;;;;;21.92;15.38;;;6.10;99.90;;;;;;4997088;28;20202;-85
2023/04/18 01:12:26;;;;;;;18.98;15.00;;;6.10;1.00;;;;;;4997561;28;20211;-85
2023/04/18 01:14:53;;;;;;;21.17;15.45;;;6.40;1.00;;;;;;5017090;28;20268;-85
2023/04/18 01:17:21;;;;;;;21.10;15.00;;;6.10;99.90;;;;;;5019322;28;20236;-85
2023/04/18 01:19:48;;;;;;;22.55;15.13;;;6.10;99.90;;;;;;5010587;28;20189;-85
2023/04/18 01:22:17;;;;;;;17.23;13.27;;;6.00;1.00;;;;;;5019192;28;20186;-85
2023/04/18 01:24:45;;;;;;;21.27;14.95;;;6.30;1.00;;;;;;5018930;28;20186;-85
2023/04/18 01:27:13;;;;;;;18.05;13.90;;;6.10;1.00;;;;;;5001627;28;20215;-86
2023/04/18 01:29:40;;;;;;;19.40;14.98;;;6.10;1.00;;;;;;5003425;28;20232;-85
2023/04/18 01:32:07;;;;;;;20.13;14.55;;;6.00;1.00;;;;;;5013299;28;20205;-85
2023/04/18 01:34:34;;;;;;;18.63;14.80;;;6.10;99.90;;;;;;5004403;28;20202;-85
2023/04/18 01:37:01;;;;;;;18.65;13.95;;;6.00;99.90;;;;;;5002603;28;20283;-85
2023/04/18 01:39:28;;;;;;;23.65;15.43;;;6.10;99.90;;;;;;4999751;28;20208;-86
2023/04/18 01:41:57;;;;;;;23.48;14.88;;;6.10;99.90;;;;;;4983239;28;20210;-85
2023/04/18 01:44:23;;;;;;;24.65;15.52;;;6.00;99.90;;;;;;5003102;28;20253;-85
2023/04/18 01:46:50;;;;;;;20.92;14.75;;;6.00;99.90;;;;;;5003296;28;20256;-85
2023/04/18 01:49:17;;;;;;;18.83;14.00;;;5.80;99.90;;;;;;5003002;28;20201;-85
2023/04/18 01:51:44;;;;;;;18.85;13.32;;;6.00;99.90;;;;;;5003911;28;20583;-85
2023/04/18 01:54:11;;;;;;;22.05;13.95;;;6.00;99.90;;;;;;5004485;28;20292;-86
2023/04/18 01:56:38;;;;;;;21.63;13.93;;;6.00;99.90;;;;;;5004072;28;20718;-85
2023/04/18 01:59:06;;;;;;;18.13;13.30;;;5.90;99.90;;;;;;5003553;28;20225;-85
2023/04/18 02:01:33;;;;;;;19.52;15.57;;;5.90;99.90;;;;;;5002464;28;20316;-85
2023/04/18 02:04:00;;;;;;;19.88;14.57;;;5.80;99.90;;;;;;5003740;28;20211;-85
2023/04/18 02:06:26;;;;;;;19.08;14.13;;;5.80;1.00;;;;;;5004738;28;20229;-85
2023/04/18 02:08:53;;;;;;;17.60;13.20;;;5.90;1.00;;;;;;5005413;28;20237;-85
2023/04/18 02:11:21;;;;;;;23.67;15.63;;;5.90;1.00;;;;;;5001586;28;20290;-85
2023/04/18 02:13:47;;;;;;;17.48;13.40;;;5.90;1.00;;;;;;5000403;28;20213;-86
2023/04/18 02:16:17;;;;;;;18.70;14.73;;;5.90;1.00;;;;;;5001858;28;20331;-85
2023/04/18 02:18:44;;;;;;;18.95;13.80;;;5.90;1.00;;;;;;5003404;28;20724;-86
2023/04/18 02:21:11;;;;;;;21.60;14.25;;;5.80;1.00;;;;;;5003180;28;20269;-85
2023/04/18 02:23:37;;;;;;;21.33;15.40;;;5.90;1.00;;;;;;5003557;28;20212;-85
2023/04/18 02:26:04;;;;;;;19.20;13.90;;;6.00;99.90;;;;;;5003449;28;20256;-85
2023/04/18 02:28:31;;;;;;;17.77;13.18;;;6.00;99.90;;;;;;5008140;28;20189;-86
2023/04/18 02:31:00;;;;;;;17.17;14.07;;;6.10;99.90;;;;;;5015831;28;20210;-86
2023/04/18 02:33:28;;;;;;;20.50;14.10;;;6.10;1.00;;;;;;5007831;28;20235;-86
2023/04/18 02:35:55;;;;;;;19.15;13.18;;;6.10;99.90;;;;;;5010516;28;20292;-86
2023/04/18 02:38:21;;;;;;;19.48;13.82;;;6.10;99.90;;;;;;5010268;28;20253;-86
2023/04/18 02:40:48;;;;;;;17.50;13.50;;;6.20;99.90;;;;;;5007416;28;20602;-84
2023/04/18 02:43:15;;;;;;;21.08;14.05;;;6.20;99.90;;;;;;5002499;28;20260;-84
2023/04/18 02:45:42;;;;;;;19.42;13.48;;;6.30;99.90;;;;;;5001546;28;20259;-85
2023/04/18 02:48:09;;;;;;;18.50;13.45;;;6.20;99.90;;;;;;5000550;28;20236;-85
2023/04/18 02:50:37;;;;;;;21.20;13.05;;;6.20;99.90;;;;;;5013892;28;20209;-85
2023/04/18 02:53:04;;;;;;;16.75;13.18;;;6.20;99.90;;;;;;5010525;28;20304;-85
2023/04/18 02:55:30;;;;;;;18.70;14.57;;;6.30;99.90;;;;;;5015806;28;20711;-85
2023/04/18 02:57:57;;;;;;;15.00;12.00;;;6.20;99.90;;;;;;5019193;28;20229;-85
2023/04/18 03:00:24;;;;;;;18.33;14.23;;;6.20;99.90;;;;;;5018207;28;20209;-85
2023/04/18 03:02:51;;;;;;;18.83;13.73;;;6.30;99.90;;;;;;5020541;28;20203;-85
2023/04/18 03:05:19;;;;;;;15.63;12.30;;;6.30;99.90;;;;;;5021688;28;20205;-85
2023/04/18 03:07:48;;;;;;;17.48;14.15;;;6.30;99.90;;;;;;5020282;28;20624;-85
2023/04/18 03:10:15;;;;;;;19.60;14.18;;;6.30;99.90;;;;;;5010491;28;20210;-85
2023/04/18 03:12:42;;;;;;;17.13;12.80;;;6.40;99.90;;;;;;5010337;28;20217;-85
2023/04/18 03:15:10;;;;;;;15.70;12.90;;;6.30;99.90;;;;;;5009451;28;20304;-85
2023/04/18 03:17:37;;;;;;;16.58;12.50;;;6.30;99.90;;;;;;5004176;28;20249;-86
2023/04/18 03:20:04;;;;;;;16.73;12.98;;;6.40;99.90;;;;;;5005617;28;20618;-85
2023/04/18 03:22:31;;;;;;;18.27;13.18;;;6.40;99.90;;;;;;5006897;28;20278;-86
2023/04/18 03:24:59;;;;;;;19.77;13.85;;;6.30;99.90;;;;;;5013048;28;20229;-85
2023/04/18 03:27:26;;;;;;;17.20;13.93;;;6.30;99.90;;;;;;5020831;28;20233;-85
2023/04/18 03:29:53;;;;;;;15.50;12.85;;;6.30;99.90;;;;;;5012056;28;20213;-86
2023/04/18 03:32:21;;;;;;;16.60;13.25;;;6.30;99.90;;;;;;5011606;28;20265;-86
2023/04/18 03:34:48;;;;;;;19.95;13.45;;;6.90;99.90;;;;;;5009555;28;20205;-85
2023/04/18 03:37:15;;;;;;;17.45;13.25;;;6.40;99.90;;;;;;5011617;28;20208;-85
2023/04/18 03:39:42;;;;;;;16.27;14.40;;;6.40;99.90;;;;;;5006994;28;20660;-85
2023/04/18 03:42:10;;;;;;;17.23;12.30;;;6.40;99.90;;;;;;5004044;28;20213;-88
2023/04/18 03:44:37;;;;;;;17.50;13.20;;;6.30;99.90;;;;;;5001239;28;20190;-88
2023/04/18 03:47:04;;;;;;;20.63;14.50;;;6.30;84.50;;;;;;5003456;28;20244;-88
2023/04/18 03:49:31;;;;;;;22.20;14.10;;;6.40;99.90;;;;;;5000829;28;20252;-88
2023/04/18 03:51:57;;;;;;;20.80;15.68;;;6.40;69.60;;;;;;5002346;28;20212;-88
2023/04/18 03:54:24;;;;;;;16.48;11.80;;;6.30;11.80;;;;;;5000193;28;20209;-88
2023/04/18 03:56:51;;;;;;;16.80;13.68;;;6.40;99.90;;;;;;4999174;28;20295;-88
2023/04/18 03:59:19;;;;;;;15.95;11.35;;;6.40;99.90;;;;;;4999288;28;20261;-88
2023/04/18 04:01:46;;;;;;;15.68;12.00;;;6.40;99.90;;;;;;5003320;28;20217;-88
2023/04/18 04:04:14;;;;;;;20.60;14.35;;;6.40;99.90;;;;;;5012393;28;20691;-88
2023/04/18 04:06:41;;;;;;;17.92;12.85;;;6.40;99.90;;;;;;5009190;28;20451;-88
2023/04/18 04:09:07;;;;;;;18.85;12.77;;;6.30;99.90;;;;;;5012529;28;20276;-88
2023/04/18 04:11:34;;;;;;;18.50;13.00;;;6.30;99.90;;;;;;5000388;28;20205;-88
2023/04/18 04:14:01;;;;;;;16.77;12.55;;;6.30;99.90;;;;;;4999782;28;20305;-87
2023/04/18 04:16:29;;;;;;;17.17;13.23;;;6.30;99.90;;;;;;5065269;22;20338;-84
2023/04/18 04:18:56;;;;;;;17.58;12.88;;;6.20;99.90;;;;;;5041554;28;20739;-85
2023/04/18 04:21:23;;;;;;;19.77;13.52;;;6.30;1.00;;;;;;5044225;28;20289;-84
2023/04/18 04:23:50;;;;;;;19.08;14.32;;;6.10;99.90;;;;;;5044969;28;20258;-83
2023/04/18 04:26:17;;;;;;;18.05;13.80;;;6.10;1.00;;;;;;5040771;28;20282;-83
2023/04/18 04:28:45;;;;;;;18.48;14.45;;;6.00;99.90;;;;;;5042597;28;20278;-83
2023/04/18 04:31:12;;;;;;;19.90;14.68;;;6.10;99.90;;;;;;5040131;28;20200;-84
2023/04/18 04:33:42;;;;;;;19.02;13.57;;;5.90;99.90;;;;;;5040445;28;20200;-84
2023/04/18 04:36:09;;;;;;;21.42;15.75;;;5.90;99.90;;;;;;5040296;28;20346;-85
2023/04/18 04:38:39;;;;;;;19.48;15.00;;;5.90;99.90;;;;;;5040544;28;20230;-84
2023/04/18 04:41:06;;;;;;;20.58;14.85;;;5.80;1.00;;;;;;5039557;28;20437;-83
2023/04/18 04:43:34;;;;;;;20.55;14.95;;;5.80;99.90;;;;;;5039561;28;20208;-83
2023/04/18 04:46:02;;;;;;;20.67;14.30;;;5.90;1.00;;;;;;5040419;28;20668;-83
2023/04/18 04:48:29;;;;;;;18.10;13.68;;;5.90;1.00;;;;;;5039456;28;20206;-84
2023/04/18 04:50:58;;;;;;;18.00;14.15;;;5.90;99.90;;;;;;5040243;28;20204;-84
2023/04/18 04:53:29;;;;;;;20.73;15.75;;;5.90;1.00;;;;;;5040586;28;20207;-83
2023/04/18 04:56:03;;;;;;;22.13;13.73;;;5.90;1.00;;;;;;5036936;28;20262;-83
2023/04/18 04:58:30;;;;;;;21.23;14.68;;;5.20;1.00;;;;;;5039487;28;20299;-84
2023/04/18 05:00:57;;;;;;;20.88;15.68;;;5.90;1.00;;;;;;5039258;28;20709;-83
2023/04/18 05:03:24;;;;;;;22.33;16.20;;;;;;;;;;5040473;28;20227;-83
2023/04/18 05:05:52;;;;;;;19.85;15.00;;;;;;;;;;5040764;28;20235;-83
2023/04/18 05:08:29;;;;;;;21.17;14.20;;;6.00;99.90;;;;;;5039987;28;20200;-84
2023/04/18 05:10:56;;;;;;;37.80;20.35;;;;;;;;;;5040003;28;20745;-83
2023/04/18 05:13:23;;;;;;;17.88;14.15;;;6.00;99.90;;;;;;5040082;28;20679;-83
2023/04/18 05:15:50;;;;;;;17.95;14.18;;;6.20;99.90;;;;;;5041403;28;20254;-84
2023/04/18 05:18:17;;;;;;;20.70;16.17;;;6.20;99.90;;;;;;5040300;28;20263;-86
2023/04/18 05:20:44;;;;;;;27.77;15.77;;;6.10;99.90;;;;;;5043822;28;20237;-84
2023/04/18 05:23:12;;;;;;;20.05;14.88;;;6.20;1.00;;;;;;5042528;28;20228;-84
2023/04/18 05:25:41;;;;;;;20.02;15.07;;;6.10;99.90;;;;;;5041522;28;20745;-84
2023/04/18 05:28:08;;;;;;;20.48;16.23;;;6.10;99.90;;;;;;5039600;28;20239;-84
2023/04/18 05:30:35;;;;;;;19.42;15.20;;;6.10;99.90;;;;;;5040476;28;20271;-85
2023/04/18 05:33:02;;;;;;;22.48;16.05;;;6.10;99.90;;;;;;5043098;28;20219;-85
2023/04/18 05:35:31;;;;;;;18.33;14.70;;;6.10;99.90;;;;;;5041001;28;20228;-85
2023/04/18 05:37:58;;;;;;;20.17;14.52;;;;;;;;;;5039891;28;20228;-83
2023/04/18 05:40:26;;;;;;;20.20;15.90;;;6.30;99.90;;;;;;5041936;28;20205;-84
2023/04/18 05:42:54;;;;;;;21.55;14.82;;;6.50;99.90;;;;;;5053569;28;20215;-83
2023/04/18 05:45:21;;;;;;;18.40;14.90;;;6.80;99.90;;;;;;5057312;28;20219;-83
2023/04/18 05:47:48;;;;;;;21.75;15.95;;;6.50;99.90;;;;;;5057957;28;20197;-83
2023/04/18 05:50:15;;;;;;;23.90;15.23;;;6.20;99.90;;;;;;5052943;28;20283;-83
2023/04/18 05:52:41;;;;;;;21.55;15.10;;;6.40;99.90;;;;;;5046942;28;20204;-84
2023/04/18 05:55:09;;;;;;;20.27;15.07;;;6.30;99.90;;;;;;5047048;28;20267;-83
2023/04/18 05:57:36;;;;;;;21.70;15.18;;;5.00;99.90;;;;;;5045293;28;20219;-86
2023/04/18 06:00:06;;;;;;;18.27;14.40;;;6.40;99.90;;;;;;5040847;28;20255;-84
2023/04/18 06:02:39;;;;;;;20.45;14.88;;;6.40;99.90;;;;;;5043105;28;20211;-85
2023/04/18 06:05:07;;;;;;;19.80;15.10;;;6.40;99.90;;;;;;5040392;28;20216;-84
2023/04/18 06:07:34;;;;;;;20.88;14.95;;;6.50;99.90;;;;;;5044535;28;20188;-82
2023/04/18 06:10:00;;;;;;;19.58;14.10;;;6.40;9.10;;;;;;5056335;28;20261;-80
2023/04/18 06:12:27;;;;;;;22.25;16.23;;;6.50;1.00;;;;;;5055640;28;20219;-82
2023/04/18 06:15:30;;;;;;;19.00;14.10;;;6.50;1.00;;;;;;5052658;28;20207;-83
2023/04/18 06:17:57;;;;;;;19.83;13.35;;;;;;;;;;5030333;28;20203;-83
2023/04/18 06:20:24;;;;;;;15.95;13.98;;;7.00;1.00;;;;;;5054313;28;20268;-83
2023/04/18 06:22:51;;;;;;;19.38;14.00;;;7.00;1.00;;;;;;5055228;28;20268;-83
2023/04/18 06:25:17;;;;;;;22.48;14.88;;;7.00;1.00;;;;;;5049258;28;20291;-83
2023/04/18 06:27:44;;;;;;;23.20;15.35;;;6.90;1.00;;;;;;5046001;28;20204;-83
2023/04/18 06:30:12;;;;;;;18.42;13.40;;;6.90;1.00;;;;;;5047033;28;20201;-83
2023/04/18 06:32:40;;;;;;;20.40;15.55;;;7.10;1.00;;;;;;5044274;28;20208;-84
2023/04/18 06:35:07;;;;;;;20.00;14.73;;;7.20;1.00;;;;;;5044677;28;20321;-85
2023/04/18 06:37:37;;;;;;;14.88;11.95;;;7.30;1.00;;;;;;5044490;28;20243;-83
2023/04/18 06:40:05;;;;;;;22.83;14.70;;;7.20;1.00;;;;;;5044055;28;20213;-83
2023/04/18 06:42:37;;;;;;;21.30;13.75;;;7.30;28.00;;;;;;5043352;28;20204;-85
2023/04/18 06:45:06;;;;;;;20.00;15.80;;;7.20;1.00;;;;;;5042994;28;20224;-84
2023/04/18 06:47:33;;;;;;;16.75;12.15;;;;;;;;;;5043111;28;20283;-83
2023/04/18 06:50:04;;;;;;;19.88;15.57;;;7.40;1.00;;;;;;5043243;28;20204;-84
2023/04/18 06:52:31;;;;;;;17.80;14.33;;;7.30;1.00;;;;;;5044542;28;20663;-84
2023/04/18 06:54:58;;;;;;;20.80;14.50;;;7.50;1.00;;;;;;5044876;28;20535;-84
2023/04/18 06:57:25;;;;;;;21.73;13.55;;;7.70;1.00;;;;;;5048909;28;20238;-84
2023/04/18 06:59:52;;;;;;;19.80;13.70;;;7.70;1.00;;;;;;5046630;28;20224;-83
2023/04/18 07:02:19;;;;;;;14.20;12.23;;;7.90;99.90;;;;;;5045235;28;20454;-85
2023/04/18 07:04:46;;;;;;;20.53;13.23;;;7.30;99.90;;;;;;5044191;28;20542;-84
2023/04/18 07:07:14;;;;;;;17.50;13.67;;;7.60;99.90;;;;;;5044386;28;20486;-84
2023/04/18 07:09:41;;;;;;;19.83;14.10;;;7.70;99.90;;;;;;5046593;28;20475;-84
2023/04/18 07:12:08;;;;;;;20.87;15.87;;;7.80;99.90;;;;;;5043966;28;20523;-84
2023/04/18 07:14:34;;;;;;;18.70;13.57;;;7.70;99.90;;;;;;5043093;28;20460;-84
2023/04/18 07:17:01;;;;;;;16.07;12.33;;;7.90;99.90;;;;;;5043384;28;20463;-83
2023/04/18 07:19:28;;;;;;;17.13;12.77;;;7.70;99.90;;;;;;5042652;28;20494;-84
2023/04/18 07:21:55;;;;;;;18.33;13.77;;;8.00;54.00;;;;;;5041932;28;20456;-85
2023/04/18 07:24:24;;;;;;;14.40;12.23;;;8.10;29.30;;;;;;5043021;28;20482;-84
2023/04/18 07:26:50;;;;;;;17.40;14.30;;;8.40;99.90;;;;;;5041529;28;20482;-84
2023/04/18 07:29:18;;;;;;;14.17;12.70;;;8.20;1.00;;;;;;5041804;28;20580;-85
2023/04/18 07:31:45;;;;;;;13.07;11.67;;;8.10;1.00;;;;;;5043217;28;20458;-84
2023/04/18 07:34:12;;;;;;;17.07;12.47;;;8.10;1.00;;;;;;5041451;28;20426;-83
2023/04/18 07:36:40;;;;;;;15.40;12.90;;;8.20;13.10;;;;;;5042024;28;20476;-85
2023/04/18 07:39:07;;;;;;;16.73;12.90;;;8.00;1.00;;;;;;5041122;28;20482;-84
2023/04/18 07:41:35;;;;;;;17.60;13.07;;;8.20;1.00;;;;;;5039850;28;20958;-84
2023/04/18 07:44:02;;;;;;;17.70;13.53;;;8.20;1.00;;;;;;5041268;28;20462;-84
2023/04/18 07:46:31;;;;;;;18.60;13.43;;;8.20;1.00;;;;;;5041801;28;20477;-84
2023/04/18 07:48:57;;;;;;;18.50;12.83;;;8.60;1.00;;;;;;5038884;28;20497;-82
2023/04/18 07:51:30;;;;;;;13.63;12.17;;;8.30;1.00;;;;;;5037470;28;20443;-84
2023/04/18 07:53:57;;;;;;;18.80;13.43;;;8.30;1.00;;;;;;5037271;28;20444;-84
2023/04/18 07:56:24;;;;;;;18.67;13.67;;;8.60;99.90;;;;;;5037400;28;20558;-83
2023/04/18 07:58:52;;;;;;;15.17;12.97;;;8.70;1.00;;;;;;5037738;28;21011;-84
2023/04/18 08:01:23;;;;;;;20.70;12.57;;;8.90;99.90;;;;;;5037580;28;20951;-83
2023/04/18 08:03:50;;;;;;;17.80;13.50;;;8.90;1.00;;;;;;5038462;28;20436;-83
2023/04/18 08:06:17;;;;;;;19.73;14.33;;;9.00;1.00;;;;;;5038932;28;20471;-82
2023/04/18 08:08:44;;;;;;;18.60;13.60;;;8.80;1.00;;;;;;5038591;28;20448;-84
2023/04/18 08:11:14;;;;;;;18.97;14.57;;;8.70;1.00;;;;;;5039517;28;20480;-84
2023/04/18 08:13:41;;;;;;;19.77;13.30;;;;;;;;;;5043552;28;20449;-84
2023/04/18 08:16:09;;;;;;;15.97;12.70;;;8.70;1.00;;;;;;5039690;28;20540;-84
2023/04/18 08:18:36;;;;;;;17.87;13.60;;;8.60;18.60;;;;;;5052177;28;20475;-85
2023/04/18 08:21:04;;;;;;;20.43;15.70;;;8.70;1.00;;;;;;5051916;28;20465;-85
2023/04/18 08:23:31;;;;;;;17.83;13.23;;;10.40;1.00;;;;;;5049680;28;20415;-85
2023/04/18 08:25:59;;;;;;;17.73;12.90;;;8.70;1.00;;;;;;5052457;28;20474;-85
2023/04/18 08:28:26;;;;;;;15.50;11.83;;;8.80;1.00;;;;;;5058432;28;20465;-83
2023/04/18 08:30:55;;;;;;;18.23;13.37;;;9.10;99.90;;;;;;5058886;28;20448;-84
2023/04/18 08:33:27;;;;;;;18.57;13.20;;;9.40;99.90;;;;;;5058470;28;20453;-86
2023/04/18 08:35:55;;;;;;;16.20;14.50;;;;;;;;;;5050011;28;20817;-85
2023/04/18 08:38:22;;;;;;;20.07;14.30;;;;;;;;;;5050957;28;20451;-84
2023/04/18 08:40:49;;;;;;;15.40;12.73;;;8.60;1.00;;;;;;5056491;28;20496;-85
2023/04/18 08:43:15;;;;;;;19.60;13.20;;;9.70;1.00;;;;;;5043327;28;20854;-83
2023/04/18 08:45:43;;;;;;;17.10;14.00;;;8.90;60.10;;;;;;5040227;28;20925;-83
2023/04/18 08:48:12;;;;;;;15.97;13.90;;;8.90;1.00;;;;;;5039712;28;20479;-83
2023/04/18 08:50:40;;;;;;;16.53;13.50;;;8.80;1.00;;;;;;5040153;28;20463;-82
2023/04/18 08:53:08;;;;;;;16.70;12.60;;;8.80;1.00;;;;;;5040955;28;20444;-81
2023/04/18 08:55:35;;;;;;;18.93;12.40;;;8.80;1.00;;;;;;5040462;28;20575;-82
2023/04/18 08:58:03;;;;;;;16.20;13.53;;;9.20;99.90;;;;;;5041194;28;20456;-81
2023/04/18 09:00:31;;;;;;;16.63;12.27;;;9.10;90.00;;;;;;5040852;28;20484;-82
2023/04/18 09:02:58;;;;;;;20.70;12.63;;;9.30;30.80;;;;;;5040905;28;20423;-82
2023/04/18 09:05:28;;;;;;;16.00;13.97;;;9.40;99.90;;;;;;5039638;28;20559;-82
2023/04/18 09:07:56;;;;;;;13.20;10.80;;;9.40;99.90;;;;;;5039913;28;20420;-82
2023/04/18 09:10:28;;;;;;;15.07;12.20;;;9.30;1.00;;;;;;5040169;28;20444;-83
2023/04/18 09:12:56;;;;;;;15.90;12.80;;;9.40;1.00;;;;;;5038890;28;20449;-81
2023/04/18 09:15:25;;;;;;;15.60;11.80;;;9.70;99.90;;;;;;5037112;28;21008;-83
2023/04/18 09:17:54;;;;;;;17.03;12.37;;;9.90;1.00;;;;;;5038616;28;20464;-81
2023/04/18 09:20:36;;;;;;;14.33;12.33;;;10.20;91.30;;;;;;5041967;28;20488;-81
2023/04/18 09:23:09;;;;;;;14.07;11.80;;;10.20;99.90;;;;;;5043969;28;20435;-82
2023/04/18 09:25:38;;;;;;;15.90;13.00;;;10.10;99.90;;;;;;5040381;28;20558;-82
2023/04/18 09:28:16;;;;;;;14.63;12.17;;;10.10;99.90;;;;;;5039749;28;20866;-83
2023/04/18 09:33:15;;;;;;;13.40;12.00;;;;;;;;;;5127727;27;1358714;-83
2023/04/18 09:35:42;;;;;;;18.60;12.80;;;;;;;;;;5156024;28;20446;-82
2023/04/18 09:38:09;;;;;;;14.23;11.30;;;;;;;;;;5151771;28;20446;-85
2023/04/18 09:40:36;;;;;;;14.25;11.88;;;;;;;;;;5142410;28;20431;-84
2023/04/18 09:43:18;;;;;;;15.48;11.27;;;11.20;99.90;;;;;;5139355;28;20924;-81
2023/04/18 09:45:47;;;;;;;16.27;12.43;;;10.60;99.90;;;;;;5138342;28;20958;-80
2023/04/18 09:48:15;;;;;;;14.95;12.35;;;;;;;;;;5141137;28;20433;-80
2023/04/18 09:50:43;;;;;;;15.45;11.60;;;;;;;;;;5140953;28;20522;-79
2023/04/18 09:53:12;;;;;;;16.63;12.60;;;10.70;1.00;;;;;;5137650;28;20442;-79
2023/04/18 09:55:41;;;;;;;13.70;11.20;;;11.10;1.00;;;;;;5139445;28;20523;-81
2023/04/18 09:58:08;;;;;;;16.10;11.47;;;10.60;99.90;;;;;;5138206;28;20996;-81
2023/04/18 10:00:37;;;;;;;19.23;14.87;;;11.40;1.00;;;;;;5135367;28;20533;-82
2023/04/18 10:03:06;;;;;;;14.80;11.17;;;11.20;99.90;;;;;;5134383;28;20496;-81
2023/04/18 10:05:38;;;;;;;15.00;12.30;;;11.30;90.30;;;;;;5134183;28;20470;-81
2023/04/18 10:08:06;;;;;;;17.80;11.88;;;10.70;99.90;;;;;;5134447;28;20437;-81
2023/04/18 10:10:34;;;;;;;16.87;12.33;;;;;;;;;;5135921;28;20438;-83
2023/04/18 10:16:23;;;;;;;17.87;13.27;;;10.90;88.30;;;;;;5116951;22;20623;-84
2023/04/18 10:18:50;;;;;;;16.30;12.90;;;11.40;99.90;;;;;;5085092;28;20437;-84
2023/04/18 10:21:17;;;;;;;14.57;12.67;;;11.40;1.00;;;;;;5084863;28;20446;-84
2023/04/18 10:23:47;;;;;;;14.83;12.53;;;11.20;99.90;;;;;;5084058;28;20577;-84
2023/04/18 10:26:14;;;;;;;15.10;12.87;;;11.60;1.00;;;;;;5083390;28;20465;-84
2023/04/18 10:28:53;;;;;;;14.40;12.53;;;11.70;99.90;;;;;;5081948;28;20536;-82
2023/04/18 10:31:23;;;;;;;15.00;12.90;;;11.90;99.90;;;;;;5083525;28;20935;-85
2023/04/18 10:33:52;;;;;;;15.20;12.80;;;11.50;1.00;;;;;;5088549;28;20445;-78
2023/04/18 10:36:20;;;;;;;16.00;13.43;;;11.50;1.00;;;;;;5090519;28;20477;-80
2023/04/18 10:38:49;;;;;;;15.33;13.17;;;11.60;1.00;;;;;;5088414;28;20571;-79
2023/04/18 10:41:18;;;;;;;14.50;11.80;;;11.40;1.00;;;;;;5089467;28;20450;-81
2023/04/18 10:44:11;;;;;;;15.97;13.70;;;11.40;1.00;;;;;;5083527;28;20471;-80
2023/04/18 10:46:41;;;;;;;16.03;12.30;;;11.50;1.00;;;;;;5091139;28;20465;-79
2023/04/18 10:49:16;;;;;;;13.80;11.57;;;11.90;1.00;;;;;;5090594;28;20544;-79
2023/04/18 10:51:44;;;;;;;15.77;14.10;;;11.70;99.90;;;;;;5090690;28;20443;-78
2023/04/18 10:54:13;;;;;;;15.47;12.40;;;11.80;8.50;;;;;;5088036;28;20465;-78
2023/04/18 10:56:51;;;;;;;17.03;12.87;;;12.20;1.00;;;;;;5090246;28;20496;-79
2023/04/18 10:59:18;;;;;;;18.63;12.50;;;12.30;1.00;;;;;;5088036;28;20429;-80
2023/04/18 11:01:49;;;;;;;15.73;13.27;;;12.00;1.00;;;;;;5087147;28;20476;-79
2023/04/18 11:04:16;;;;;;;16.20;11.60;;;12.20;99.90;;;;;;5084299;28;20456;-80
2023/04/18 11:06:50;;;;;;;15.57;13.00;;;12.10;1.00;;;;;;5084160;28;20519;-81
2023/04/18 11:09:17;;;;;;;14.60;12.10;;;12.60;99.90;;;;;;5080220;28;20460;-78
2023/04/18 11:11:44;;;;;;;16.67;12.80;;;12.40;99.90;;;;;;5081972;28;20442;-80
2023/04/18 11:14:11;;;;;;;18.83;13.20;;;12.50;1.00;;;;;;5078245;28;20524;-79
2023/04/18 11:16:38;;;;;;;17.97;13.87;;;12.10;99.90;;;;;;5072864;28;20481;-78
2023/04/18 11:19:23;;;;;;;15.00;13.07;;;11.80;99.90;;;;;;5075510;28;20447;-78
2023/04/18 11:21:50;;;;;;;13.13;11.73;;;12.40;1.00;;;;;;5073122;28;20449;-77
2023/04/18 11:24:22;;;;;;;14.80;13.00;;;12.50;1.00;;;;;;5075204;28;20445;-78
2023/04/18 11:26:54;;;;;;;14.07;12.53;;;12.10;99.90;;;;;;5071217;28;20469;-78
2023/04/18 11:29:21;;;;;;;17.27;14.83;;;12.00;99.90;;;;;;5071469;28;20434;-80
2023/04/18 11:31:52;;;;;;;15.17;12.37;;;11.90;99.90;;;;;;5073264;28;20472;-79
2023/04/18 11:34:19;;;;;;;14.80;12.93;;;11.90;99.90;;;;;;5070537;28;20439;-80
2023/04/18 11:36:50;;;;;;;15.80;12.47;;;11.90;99.90;;;;;;5072366;28;20471;-80
2023/04/18 11:39:17;;;;;;;16.43;14.00;;;12.20;99.90;;;;;;5074016;28;20431;-83
2023/04/18 11:41:49;;;;;;;16.20;13.60;;;12.10;99.90;;;;;;5074805;28;20457;-84
2023/04/18 11:44:16;;;;;;;17.70;12.67;;;12.20;99.90;;;;;;5075789;28;20806;-86
2023/04/18 11:46:44;;;;;;;17.10;14.40;;;12.50;99.90;;;;;;5070587;28;20508;-87
2023/04/18 11:49:25;;;;;;;18.27;12.13;;;12.50;99.90;;;;;;5071565;28;20439;-86
2023/04/18 11:51:53;;;;;;;16.80;12.50;;;12.50;99.90;;;;;;5070250;28;20422;-85
2023/04/18 11:54:44;;;;;;;16.80;14.30;;;12.40;99.90;;;;;;5067394;28;20800;-86
2023/04/18 11:57:25;;;;;;;15.37;13.47;;;12.60;1.00;;;;;;5049013;28;20501;-85
2023/04/18 11:59:53;;;;;;;16.10;12.17;;;13.00;1.00;;;;;;5075153;28;20430;-85
2023/04/18 12:02:22;;;;;;;14.40;12.80;;;12.70;99.90;;;;;;5073594;28;20500;-84
2023/04/18 12:04:54;;;;;;;15.33;11.77;;;12.90;1.00;;;;;;5072906;28;21019;-85
2023/04/18 12:07:37;;;;;;;15.17;13.60;;;12.70;99.90;;;;;;5072398;28;20469;-83
2023/04/18 12:10:06;;;;;;;16.53;12.77;;;12.80;99.90;;;;;;5070291;28;20427;-85
2023/04/18 12:12:33;;;;;;;17.03;13.77;;;13.00;1.00;;;;;;5068484;28;20442;-85
2023/04/18 12:15:05;;;;;;;15.37;13.33;;;12.70;99.90;;;;;;5069736;28;20477;-85
2023/04/18 12:17:32;;;;;;;15.77;13.03;;;12.50;99.90;;;;;;5069148;28;20411;-85
2023/04/18 12:20:08;;;;;;;15.93;12.93;;;12.90;1.00;;;;;;5069606;28;20454;-85
2023/04/18 12:22:46;;;;;;;16.00;14.10;;;12.90;99.90;;;;;;5071706;28;20441;-84
2023/04/18 12:25:18;;;;;;;16.53;13.30;;;12.80;99.90;;;;;;5073646;28;20453;-84
2023/04/18 12:27:57;;;;;;;15.23;13.13;;;13.00;14.80;;;;;;5074711;28;20425;-83
2023/04/18 12:30:25;;;;;;;18.10;14.93;;;12.90;75.70;;;;;;5069231;28;20426;-82
2023/04/18 12:32:55;;;;;;;18.20;15.73;;;13.10;99.90;;;;;;5077681;28;20473;-83
2023/04/18 12:35:22;;;;;;;17.43;14.67;;;13.00;99.90;;;;;;5062276;28;20496;-85
2023/04/18 12:37:52;;;;;;;16.60;14.43;;;12.80;99.90;;;;;;5065683;28;20457;-83
2023/04/18 12:40:21;;;;;;;19.63;15.27;;;12.90;99.90;;;;;;5071721;28;20445;-83
2023/04/18 12:42:49;;;;;;;19.73;16.27;;;13.00;99.90;;;;;;5068435;28;20493;-82
2023/04/18 12:45:18;;;;;;;18.43;15.93;;;12.90;99.90;;;;;;5070829;28;20466;-81
2023/04/18 12:47:46;;;;;;;16.90;14.40;;;13.00;99.90;;;;;;5070576;28;20532;-83
2023/04/18 12:50:16;;;;;;;20.27;15.43;;;13.10;99.90;;;;;;5062124;28;20456;-81
2023/04/18 12:52:44;;;;;;;17.00;15.17;;;13.20;99.90;;;;;;5072627;28;20423;-83
2023/04/18 12:55:14;;;;;;;18.67;16.70;;;12.90;99.90;;;;;;5077950;28;20489;-81